sensor_id;sensor_type;location;lat;lon;timestamp;P1;durP1;ratioP1;P2;durP2;ratioP2
62037;SDS011;47991;42.974;12.082;2023-07-13T00:02:04;8.40;;;3.40;;
62037;SDS011;47991;42.974;12.082;2023-07-13T00:04:32;8.00;;;3.20;;
62037;SDS011;47991;42.974;12.082;2023-07-13T00:06:59;10.90;;;3.70;;
62037;SDS011;47991;42.974;12.082;2023-07-13T00:09:26;8.30;;;3.40;;
62037;SDS011;47991;42.974;12.082;2023-07-13T00:11:54;8.30;;;3.70;;
62037;SDS011;47991;42.974;12.082;2023-07-13T00:14:24;11.10;;;3.20;;
62037;SDS011;47991;42.974;12.082;2023-07-13T00:16:52;8.80;;;3.30;;
62037;SDS011;47991;42.974;12.082;2023-07-13T00:19:19;8.00;;;3.40;;
62037;SDS011;47991;42.974;12.082;2023-07-13T00:21:47;8.40;;;3.30;;
62037;SDS011;47991;42.974;12.082;2023-07-13T00:24:15;9.10;;;3.70;;
62037;SDS011;47991;42.974;12.082;2023-07-13T00:26:50;9.80;;;3.20;;
62037;SDS011;47991;42.974;12.082;2023-07-13T00:29:17;9.90;;;3.30;;
62037;SDS011;47991;42.974;12.082;2023-07-13T00:31:44;6.50;;;3.20;;
62037;SDS011;47991;42.974;12.082;2023-07-13T00:34:11;9.40;;;3.30;;
62037;SDS011;47991;42.974;12.082;2023-07-13T00:36:38;8.10;;;3.30;;
62037;SDS011;47991;42.974;12.082;2023-07-13T00:39:06;8.60;;;3.60;;
62037;SDS011;47991;42.974;12.082;2023-07-13T00:41:33;8.10;;;3.10;;
62037;SDS011;47991;42.974;12.082;2023-07-13T00:44:00;8.40;;;3.30;;
62037;SDS011;47991;42.974;12.082;2023-07-13T00:46:29;10.30;;;3.90;;
62037;SDS011;47991;42.974;12.082;2023-07-13T00:49:01;8.00;;;3.50;;
62037;SDS011;47991;42.974;12.082;2023-07-13T00:51:39;8.80;;;3.90;;
62037;SDS011;47991;42.974;12.082;2023-07-13T00:54:13;8.20;;;3.40;;
62037;SDS011;47991;42.974;12.082;2023-07-13T00:56:44;7.60;;;3.20;;
62037;SDS011;47991;42.974;12.082;2023-07-13T00:59:13;7.10;;;3.20;;
62037;SDS011;47991;42.974;12.082;2023-07-13T01:01:42;9.40;;;3.60;;
62037;SDS011;47991;42.974;12.082;2023-07-13T01:04:09;9.60;;;3.30;;
62037;SDS011;47991;42.974;12.082;2023-07-13T01:06:37;7.50;;;3.50;;
62037;SDS011;47991;42.974;12.082;2023-07-13T01:09:05;9.70;;;3.80;;
62037;SDS011;47991;42.974;12.082;2023-07-13T01:11:34;9.40;;;3.50;;
62037;SDS011;47991;42.974;12.082;2023-07-13T01:14:02;6.70;;;3.10;;
62037;SDS011;47991;42.974;12.082;2023-07-13T01:16:31;7.90;;;3.70;;
62037;SDS011;47991;42.974;12.082;2023-07-13T01:18:59;8.80;;;3.20;;
62037;SDS011;47991;42.974;12.082;2023-07-13T01:21:32;11.70;;;3.60;;
62037;SDS011;47991;42.974;12.082;2023-07-13T01:24:00;9.20;;;3.40;;
62037;SDS011;47991;42.974;12.082;2023-07-13T01:26:28;12.80;;;3.60;;
62037;SDS011;47991;42.974;12.082;2023-07-13T01:28:55;8.40;;;3.60;;
62037;SDS011;47991;42.974;12.082;2023-07-13T01:31:23;11.90;;;3.80;;
62037;SDS011;47991;42.974;12.082;2023-07-13T01:33:50;8.70;;;3.20;;
62037;SDS011;47991;42.974;12.082;2023-07-13T01:36:17;8.40;;;3.20;;
62037;SDS011;47991;42.974;12.082;2023-07-13T01:38:44;7.80;;;3.20;;
62037;SDS011;47991;42.974;12.082;2023-07-13T01:41:11;9.10;;;3.50;;
62037;SDS011;47991;42.974;12.082;2023-07-13T01:43:38;9.90;;;3.30;;
62037;SDS011;47991;42.974;12.082;2023-07-13T01:46:05;8.50;;;3.40;;
62037;SDS011;47991;42.974;12.082;2023-07-13T01:48:32;8.10;;;3.40;;
62037;SDS011;47991;42.974;12.082;2023-07-13T01:50:59;8.60;;;3.10;;
62037;SDS011;47991;42.974;12.082;2023-07-13T01:53:26;10.60;;;3.70;;
62037;SDS011;47991;42.974;12.082;2023-07-13T01:55:53;8.80;;;3.50;;
62037;SDS011;47991;42.974;12.082;2023-07-13T01:58:20;7.70;;;3.10;;
62037;SDS011;47991;42.974;12.082;2023-07-13T02:00:48;8.10;;;3.30;;
62037;SDS011;47991;42.974;12.082;2023-07-13T02:03:16;11.20;;;3.40;;
62037;SDS011;47991;42.974;12.082;2023-07-13T02:05:44;8.70;;;3.60;;
62037;SDS011;47991;42.974;12.082;2023-07-13T02:08:12;9.70;;;3.40;;
62037;SDS011;47991;42.974;12.082;2023-07-13T02:10:39;9.50;;;3.20;;
62037;SDS011;47991;42.974;12.082;2023-07-13T02:13:06;11.80;;;3.50;;
62037;SDS011;47991;42.974;12.082;2023-07-13T02:15:34;9.50;;;3.40;;
62037;SDS011;47991;42.974;12.082;2023-07-13T02:18:04;9.30;;;3.40;;
62037;SDS011;47991;42.974;12.082;2023-07-13T02:20:31;6.70;;;3.20;;
62037;SDS011;47991;42.974;12.082;2023-07-13T02:22:58;9.20;;;3.50;;
62037;SDS011;47991;42.974;12.082;2023-07-13T02:25:25;9.40;;;3.50;;
62037;SDS011;47991;42.974;12.082;2023-07-13T02:27:53;8.00;;;3.70;;
62037;SDS011;47991;42.974;12.082;2023-07-13T02:30:20;9.70;;;3.50;;
62037;SDS011;47991;42.974;12.082;2023-07-13T02:32:50;10.40;;;4.20;;
62037;SDS011;47991;42.974;12.082;2023-07-13T02:35:18;8.00;;;3.20;;
62037;SDS011;47991;42.974;12.082;2023-07-13T02:37:45;8.50;;;3.60;;
62037;SDS011;47991;42.974;12.082;2023-07-13T02:40:12;9.30;;;3.20;;
62037;SDS011;47991;42.974;12.082;2023-07-13T02:42:39;9.30;;;3.70;;
62037;SDS011;47991;42.974;12.082;2023-07-13T02:45:07;9.10;;;3.30;;
62037;SDS011;47991;42.974;12.082;2023-07-13T02:47:36;8.70;;;3.40;;
62037;SDS011;47991;42.974;12.082;2023-07-13T02:50:03;8.70;;;3.30;;
62037;SDS011;47991;42.974;12.082;2023-07-13T02:52:30;14.10;;;3.90;;
62037;SDS011;47991;42.974;12.082;2023-07-13T02:54:57;10.70;;;3.70;;
62037;SDS011;47991;42.974;12.082;2023-07-13T02:57:24;8.90;;;3.70;;
62037;SDS011;47991;42.974;12.082;2023-07-13T02:59:50;10.80;;;3.60;;
62037;SDS011;47991;42.974;12.082;2023-07-13T03:02:17;10.30;;;3.80;;
62037;SDS011;47991;42.974;12.082;2023-07-13T03:04:44;21.50;;;4.30;;
62037;SDS011;47991;42.974;12.082;2023-07-13T03:07:11;8.00;;;3.30;;
62037;SDS011;47991;42.974;12.082;2023-07-13T03:09:40;10.30;;;3.70;;
62037;SDS011;47991;42.974;12.082;2023-07-13T03:12:07;9.20;;;3.20;;
62037;SDS011;47991;42.974;12.082;2023-07-13T03:14:34;8.00;;;4.00;;
62037;SDS011;47991;42.974;12.082;2023-07-13T03:17:01;9.10;;;3.60;;
62037;SDS011;47991;42.974;12.082;2023-07-13T03:19:28;9.00;;;3.40;;
62037;SDS011;47991;42.974;12.082;2023-07-13T03:21:55;9.60;;;3.60;;
62037;SDS011;47991;42.974;12.082;2023-07-13T03:24:22;9.90;;;3.30;;
62037;SDS011;47991;42.974;12.082;2023-07-13T03:26:52;9.00;;;3.60;;
62037;SDS011;47991;42.974;12.082;2023-07-13T03:29:19;10.30;;;3.60;;
62037;SDS011;47991;42.974;12.082;2023-07-13T03:31:46;8.00;;;3.40;;
62037;SDS011;47991;42.974;12.082;2023-07-13T03:34:13;7.30;;;3.50;;
62037;SDS011;47991;42.974;12.082;2023-07-13T03:36:40;9.50;;;4.30;;
62037;SDS011;47991;42.974;12.082;2023-07-13T03:39:06;9.90;;;3.40;;
62037;SDS011;47991;42.974;12.082;2023-07-13T03:41:36;9.80;;;3.80;;
62037;SDS011;47991;42.974;12.082;2023-07-13T03:44:04;11.00;;;3.80;;
62037;SDS011;47991;42.974;12.082;2023-07-13T03:46:31;8.90;;;3.40;;
62037;SDS011;47991;42.974;12.082;2023-07-13T03:48:59;8.60;;;3.70;;
62037;SDS011;47991;42.974;12.082;2023-07-13T03:51:27;8.90;;;3.70;;
62037;SDS011;47991;42.974;12.082;2023-07-13T03:53:54;9.20;;;3.90;;
62037;SDS011;47991;42.974;12.082;2023-07-13T03:56:21;10.50;;;3.50;;
62037;SDS011;47991;42.974;12.082;2023-07-13T03:58:49;9.00;;;3.60;;
62037;SDS011;47991;42.974;12.082;2023-07-13T04:01:18;9.80;;;4.10;;
62037;SDS011;47991;42.974;12.082;2023-07-13T04:03:46;8.70;;;3.70;;
62037;SDS011;47991;42.974;12.082;2023-07-13T04:06:16;9.60;;;3.50;;
62037;SDS011;47991;42.974;12.082;2023-07-13T04:08:52;11.90;;;3.70;;
62037;SDS011;47991;42.974;12.082;2023-07-13T04:11:22;9.80;;;3.80;;
62037;SDS011;47991;42.974;12.082;2023-07-13T04:16:18;9.00;;;3.70;;
62037;SDS011;47991;42.974;12.082;2023-07-13T04:18:46;9.90;;;3.90;;
62037;SDS011;47991;42.974;12.082;2023-07-13T04:21:15;8.00;;;3.40;;
62037;SDS011;47991;42.974;12.082;2023-07-13T04:23:42;9.30;;;3.70;;
62037;SDS011;47991;42.974;12.082;2023-07-13T04:26:10;8.40;;;3.60;;
62037;SDS011;47991;42.974;12.082;2023-07-13T04:28:37;8.70;;;3.60;;
62037;SDS011;47991;42.974;12.082;2023-07-13T04:31:04;9.10;;;4.00;;
62037;SDS011;47991;42.974;12.082;2023-07-13T04:33:31;15.00;;;4.30;;
62037;SDS011;47991;42.974;12.082;2023-07-13T04:35:58;9.20;;;3.70;;
62037;SDS011;47991;42.974;12.082;2023-07-13T04:38:27;8.80;;;3.50;;
62037;SDS011;47991;42.974;12.082;2023-07-13T04:40:59;10.20;;;3.50;;
62037;SDS011;47991;42.974;12.082;2023-07-13T04:43:28;8.40;;;4.00;;
62037;SDS011;47991;42.974;12.082;2023-07-13T04:45:56;10.00;;;3.70;;
62037;SDS011;47991;42.974;12.082;2023-07-13T04:48:23;8.90;;;3.70;;
62037;SDS011;47991;42.974;12.082;2023-07-13T04:50:54;11.10;;;4.40;;
62037;SDS011;47991;42.974;12.082;2023-07-13T04:53:23;10.80;;;3.80;;
62037;SDS011;47991;42.974;12.082;2023-07-13T04:55:50;28.70;;;5.20;;
62037;SDS011;47991;42.974;12.082;2023-07-13T04:58:18;11.00;;;3.80;;
62037;SDS011;47991;42.974;12.082;2023-07-13T05:00:45;13.20;;;4.00;;
62037;SDS011;47991;42.974;12.082;2023-07-13T05:03:12;9.40;;;3.80;;
62037;SDS011;47991;42.974;12.082;2023-07-13T05:05:39;7.20;;;3.70;;
62037;SDS011;47991;42.974;12.082;2023-07-13T05:08:06;10.70;;;3.40;;
62037;SDS011;47991;42.974;12.082;2023-07-13T05:10:35;9.90;;;3.60;;
62037;SDS011;47991;42.974;12.082;2023-07-13T05:13:02;10.80;;;3.70;;
62037;SDS011;47991;42.974;12.082;2023-07-13T05:15:29;9.20;;;3.40;;
62037;SDS011;47991;42.974;12.082;2023-07-13T05:17:56;9.60;;;3.80;;
62037;SDS011;47991;42.974;12.082;2023-07-13T05:20:23;8.20;;;3.60;;
62037;SDS011;47991;42.974;12.082;2023-07-13T05:22:51;7.30;;;3.40;;
62037;SDS011;47991;42.974;12.082;2023-07-13T05:25:18;8.90;;;3.80;;
62037;SDS011;47991;42.974;12.082;2023-07-13T05:27:45;9.50;;;3.80;;
62037;SDS011;47991;42.974;12.082;2023-07-13T05:30:13;8.50;;;3.50;;
62037;SDS011;47991;42.974;12.082;2023-07-13T05:32:41;6.50;;;3.30;;
62037;SDS011;47991;42.974;12.082;2023-07-13T05:35:08;11.10;;;3.80;;
62037;SDS011;47991;42.974;12.082;2023-07-13T05:37:37;11.00;;;3.80;;
62037;SDS011;47991;42.974;12.082;2023-07-13T05:40:04;7.50;;;3.30;;
62037;SDS011;47991;42.974;12.082;2023-07-13T05:42:32;9.40;;;3.50;;
62037;SDS011;47991;42.974;12.082;2023-07-13T05:44:59;9.00;;;3.80;;
62037;SDS011;47991;42.974;12.082;2023-07-13T05:47:26;9.30;;;3.60;;
62037;SDS011;47991;42.974;12.082;2023-07-13T05:49:53;7.80;;;3.80;;
62037;SDS011;47991;42.974;12.082;2023-07-13T05:52:20;8.90;;;3.70;;
62037;SDS011;47991;42.974;12.082;2023-07-13T05:54:47;7.60;;;3.30;;
62037;SDS011;47991;42.974;12.082;2023-07-13T05:57:14;9.10;;;3.60;;
62037;SDS011;47991;42.974;12.082;2023-07-13T05:59:41;9.00;;;3.80;;
62037;SDS011;47991;42.974;12.082;2023-07-13T06:02:09;6.10;;;3.10;;
62037;SDS011;47991;42.974;12.082;2023-07-13T06:04:37;9.00;;;3.70;;
62037;SDS011;47991;42.974;12.082;2023-07-13T06:07:04;7.30;;;3.60;;
62037;SDS011;47991;42.974;12.082;2023-07-13T06:09:31;8.20;;;3.80;;
62037;SDS011;47991;42.974;12.082;2023-07-13T06:11:58;8.90;;;3.80;;
62037;SDS011;47991;42.974;12.082;2023-07-13T06:14:25;8.90;;;3.90;;
62037;SDS011;47991;42.974;12.082;2023-07-13T06:16:52;8.70;;;4.00;;
62037;SDS011;47991;42.974;12.082;2023-07-13T06:19:19;11.70;;;4.20;;
62037;SDS011;47991;42.974;12.082;2023-07-13T06:21:46;8.90;;;3.90;;
62037;SDS011;47991;42.974;12.082;2023-07-13T06:24:13;10.10;;;3.60;;
62037;SDS011;47991;42.974;12.082;2023-07-13T06:26:40;8.00;;;3.20;;
62037;SDS011;47991;42.974;12.082;2023-07-13T06:29:07;8.10;;;3.40;;
62037;SDS011;47991;42.974;12.082;2023-07-13T06:31:34;9.10;;;3.70;;
62037;SDS011;47991;42.974;12.082;2023-07-13T06:34:01;22.10;;;4.60;;
62037;SDS011;47991;42.974;12.082;2023-07-13T06:36:27;10.30;;;4.00;;
62037;SDS011;47991;42.974;12.082;2023-07-13T06:38:55;8.00;;;3.40;;
62037;SDS011;47991;42.974;12.082;2023-07-13T06:41:22;7.00;;;3.40;;
62037;SDS011;47991;42.974;12.082;2023-07-13T06:43:49;7.00;;;2.90;;
62037;SDS011;47991;42.974;12.082;2023-07-13T06:46:16;8.80;;;4.00;;
62037;SDS011;47991;42.974;12.082;2023-07-13T06:48:42;9.20;;;3.90;;
62037;SDS011;47991;42.974;12.082;2023-07-13T06:51:09;9.70;;;3.60;;
62037;SDS011;47991;42.974;12.082;2023-07-13T06:53:36;8.70;;;3.90;;
62037;SDS011;47991;42.974;12.082;2023-07-13T06:56:03;8.40;;;3.50;;
62037;SDS011;47991;42.974;12.082;2023-07-13T06:58:30;12.10;;;4.30;;
62037;SDS011;47991;42.974;12.082;2023-07-13T07:00:57;9.50;;;3.80;;
62037;SDS011;47991;42.974;12.082;2023-07-13T07:03:24;9.10;;;3.80;;
62037;SDS011;47991;42.974;12.082;2023-07-13T07:05:51;7.30;;;3.70;;
62037;SDS011;47991;42.974;12.082;2023-07-13T07:08:18;13.60;;;4.10;;
62037;SDS011;47991;42.974;12.082;2023-07-13T07:10:45;12.80;;;4.20;;
62037;SDS011;47991;42.974;12.082;2023-07-13T07:13:13;15.30;;;4.40;;
62037;SDS011;47991;42.974;12.082;2023-07-13T07:15:39;8.30;;;3.80;;
62037;SDS011;47991;42.974;12.082;2023-07-13T07:18:06;8.50;;;4.00;;
62037;SDS011;47991;42.974;12.082;2023-07-13T07:20:33;13.80;;;4.40;;
62037;SDS011;47991;42.974;12.082;2023-07-13T07:23:00;11.00;;;4.40;;
62037;SDS011;47991;42.974;12.082;2023-07-13T07:25:27;10.00;;;3.80;;
62037;SDS011;47991;42.974;12.082;2023-07-13T07:27:58;12.00;;;3.50;;
62037;SDS011;47991;42.974;12.082;2023-07-13T07:30:25;13.10;;;4.50;;
62037;SDS011;47991;42.974;12.082;2023-07-13T07:32:52;9.90;;;4.30;;
62037;SDS011;47991;42.974;12.082;2023-07-13T07:35:19;11.50;;;3.90;;
62037;SDS011;47991;42.974;12.082;2023-07-13T07:37:46;8.60;;;3.60;;
62037;SDS011;47991;42.974;12.082;2023-07-13T07:40:14;11.00;;;4.30;;
62037;SDS011;47991;42.974;12.082;2023-07-13T07:42:41;7.50;;;3.70;;
62037;SDS011;47991;42.974;12.082;2023-07-13T07:45:08;10.50;;;4.10;;
62037;SDS011;47991;42.974;12.082;2023-07-13T07:47:37;10.20;;;4.60;;
62037;SDS011;47991;42.974;12.082;2023-07-13T07:50:05;11.30;;;4.30;;
62037;SDS011;47991;42.974;12.082;2023-07-13T07:52:32;10.30;;;4.40;;
62037;SDS011;47991;42.974;12.082;2023-07-13T07:54:59;12.50;;;4.00;;
62037;SDS011;47991;42.974;12.082;2023-07-13T07:57:26;12.30;;;4.00;;
62037;SDS011;47991;42.974;12.082;2023-07-13T07:59:52;10.40;;;3.70;;
62037;SDS011;47991;42.974;12.082;2023-07-13T08:02:19;10.90;;;4.20;;
62037;SDS011;47991;42.974;12.082;2023-07-13T08:04:46;12.40;;;4.20;;
62037;SDS011;47991;42.974;12.082;2023-07-13T08:07:13;9.80;;;4.00;;
62037;SDS011;47991;42.974;12.082;2023-07-13T08:09:40;11.20;;;4.60;;
62037;SDS011;47991;42.974;12.082;2023-07-13T08:12:07;9.70;;;4.00;;
62037;SDS011;47991;42.974;12.082;2023-07-13T08:14:34;12.50;;;4.00;;
62037;SDS011;47991;42.974;12.082;2023-07-13T08:17:01;8.20;;;3.70;;
62037;SDS011;47991;42.974;12.082;2023-07-13T08:19:29;11.20;;;4.20;;
62037;SDS011;47991;42.974;12.082;2023-07-13T08:21:56;9.10;;;3.90;;
62037;SDS011;47991;42.974;12.082;2023-07-13T08:24:23;9.10;;;4.30;;
62037;SDS011;47991;42.974;12.082;2023-07-13T08:26:51;12.00;;;3.90;;
62037;SDS011;47991;42.974;12.082;2023-07-13T08:29:18;17.40;;;4.20;;
62037;SDS011;47991;42.974;12.082;2023-07-13T08:31:46;10.30;;;4.70;;
62037;SDS011;47991;42.974;12.082;2023-07-13T08:34:13;11.90;;;4.10;;
62037;SDS011;47991;42.974;12.082;2023-07-13T08:36:41;13.90;;;4.40;;
62037;SDS011;47991;42.974;12.082;2023-07-13T08:39:08;10.70;;;4.30;;
62037;SDS011;47991;42.974;12.082;2023-07-13T08:41:35;12.30;;;3.90;;
62037;SDS011;47991;42.974;12.082;2023-07-13T08:44:03;7.50;;;3.10;;
62037;SDS011;47991;42.974;12.082;2023-07-13T08:46:42;9.70;;;3.80;;
62037;SDS011;47991;42.974;12.082;2023-07-13T08:49:13;16.00;;;4.50;;
62037;SDS011;47991;42.974;12.082;2023-07-13T08:51:46;17.60;;;4.40;;
62037;SDS011;47991;42.974;12.082;2023-07-13T08:56:48;15.20;;;4.10;;
62037;SDS011;47991;42.974;12.082;2023-07-13T08:59:20;14.90;;;4.50;;
62037;SDS011;47991;42.974;12.082;2023-07-13T09:04:32;11.40;;;3.60;;
62037;SDS011;47991;42.974;12.082;2023-07-13T09:12:46;14.80;;;4.60;;
62037;SDS011;47991;42.974;12.082;2023-07-13T09:17:49;9.50;;;4.40;;
62037;SDS011;47991;42.974;12.082;2023-07-13T09:20:26;8.20;;;4.00;;
62037;SDS011;47991;42.974;12.082;2023-07-13T09:22:59;8.30;;;4.10;;
62037;SDS011;47991;42.974;12.082;2023-07-13T09:25:31;11.80;;;4.50;;
62037;SDS011;47991;42.974;12.082;2023-07-13T09:30:46;14.00;;;4.60;;
62037;SDS011;47991;42.974;12.082;2023-07-13T09:33:20;11.40;;;4.30;;
62037;SDS011;47991;42.974;12.082;2023-07-13T09:35:48;11.00;;;4.40;;
62037;SDS011;47991;42.974;12.082;2023-07-13T09:38:17;9.70;;;4.40;;
62037;SDS011;47991;42.974;12.082;2023-07-13T09:43:16;16.70;;;4.30;;
62037;SDS011;47991;42.974;12.082;2023-07-13T09:45:46;10.50;;;4.60;;
62037;SDS011;47991;42.974;12.082;2023-07-13T09:48:16;10.20;;;4.50;;
62037;SDS011;47991;42.974;12.082;2023-07-13T09:50:44;15.30;;;4.80;;
62037;SDS011;47991;42.974;12.082;2023-07-13T09:53:12;12.30;;;4.60;;
62037;SDS011;47991;42.974;12.082;2023-07-13T09:55:43;11.00;;;4.50;;
62037;SDS011;47991;42.974;12.082;2023-07-13T10:00:53;9.80;;;4.00;;
62037;SDS011;47991;42.974;12.082;2023-07-13T10:03:28;12.10;;;4.80;;
62037;SDS011;47991;42.974;12.082;2023-07-13T10:06:12;13.70;;;4.40;;
62037;SDS011;47991;42.974;12.082;2023-07-13T10:08:41;14.40;;;4.70;;
62037;SDS011;47991;42.974;12.082;2023-07-13T10:11:17;12.20;;;5.00;;
62037;SDS011;47991;42.974;12.082;2023-07-13T10:13:57;9.80;;;4.60;;
62037;SDS011;47991;42.974;12.082;2023-07-13T10:16:30;12.50;;;5.00;;
62037;SDS011;47991;42.974;12.082;2023-07-13T10:19:00;12.50;;;4.80;;
62037;SDS011;47991;42.974;12.082;2023-07-13T10:21:37;10.80;;;4.30;;
62037;SDS011;47991;42.974;12.082;2023-07-13T10:24:16;10.30;;;4.40;;
62037;SDS011;47991;42.974;12.082;2023-07-13T10:26:50;11.10;;;4.30;;
62037;SDS011;47991;42.974;12.082;2023-07-13T10:29:23;11.40;;;4.70;;
62037;SDS011;47991;42.974;12.082;2023-07-13T10:31:53;17.20;;;4.60;;
62037;SDS011;47991;42.974;12.082;2023-07-13T10:34:21;14.60;;;4.50;;
62037;SDS011;47991;42.974;12.082;2023-07-13T10:36:48;10.80;;;4.20;;
62037;SDS011;47991;42.974;12.082;2023-07-13T10:39:20;11.80;;;4.70;;
62037;SDS011;47991;42.974;12.082;2023-07-13T10:41:59;10.80;;;4.30;;
62037;SDS011;47991;42.974;12.082;2023-07-13T10:44:31;13.20;;;4.80;;
62037;SDS011;47991;42.974;12.082;2023-07-13T10:47:01;11.50;;;5.20;;
62037;SDS011;47991;42.974;12.082;2023-07-13T10:49:32;9.40;;;4.40;;
62037;SDS011;47991;42.974;12.082;2023-07-13T10:52:01;9.60;;;4.60;;
62037;SDS011;47991;42.974;12.082;2023-07-13T10:54:31;11.80;;;4.40;;
62037;SDS011;47991;42.974;12.082;2023-07-13T11:00:14;11.50;;;4.80;;
62037;SDS011;47991;42.974;12.082;2023-07-13T11:02:43;9.00;;;4.80;;
62037;SDS011;47991;42.974;12.082;2023-07-13T11:08:12;29.90;;;7.20;;
62037;SDS011;47991;42.974;12.082;2023-07-13T11:10:53;10.80;;;4.70;;
62037;SDS011;47991;42.974;12.082;2023-07-13T11:18:50;10.30;;;4.70;;
62037;SDS011;47991;42.974;12.082;2023-07-13T11:21:21;10.30;;;4.90;;
62037;SDS011;47991;42.974;12.082;2023-07-13T11:24:03;13.70;;;4.90;;
62037;SDS011;47991;42.974;12.082;2023-07-13T11:26:41;13.10;;;5.10;;
62037;SDS011;47991;42.974;12.082;2023-07-13T11:29:23;32.30;;;7.00;;
62037;SDS011;47991;42.974;12.082;2023-07-13T11:31:52;14.30;;;5.20;;
62037;SDS011;47991;42.974;12.082;2023-07-13T11:34:35;14.70;;;5.60;;
62037;SDS011;47991;42.974;12.082;2023-07-13T11:37:10;17.70;;;4.90;;
62037;SDS011;47991;42.974;12.082;2023-07-13T11:39:42;12.60;;;4.60;;
62037;SDS011;47991;42.974;12.082;2023-07-13T11:42:13;11.20;;;5.00;;
62037;SDS011;47991;42.974;12.082;2023-07-13T11:44:44;10.80;;;4.80;;
62037;SDS011;47991;42.974;12.082;2023-07-13T11:47:20;10.30;;;4.70;;
62037;SDS011;47991;42.974;12.082;2023-07-13T11:49:49;13.30;;;5.00;;
62037;SDS011;47991;42.974;12.082;2023-07-13T11:52:20;13.40;;;4.90;;
62037;SDS011;47991;42.974;12.082;2023-07-13T11:54:56;11.20;;;5.30;;
62037;SDS011;47991;42.974;12.082;2023-07-13T11:57:30;10.00;;;4.60;;
62037;SDS011;47991;42.974;12.082;2023-07-13T12:00:09;12.80;;;5.60;;
62037;SDS011;47991;42.974;12.082;2023-07-13T12:02:45;9.70;;;4.50;;
62037;SDS011;47991;42.974;12.082;2023-07-13T12:05:16;13.60;;;5.20;;
62037;SDS011;47991;42.974;12.082;2023-07-13T12:07:45;13.00;;;5.30;;
62037;SDS011;47991;42.974;12.082;2023-07-13T12:15:39;14.00;;;5.10;;
62037;SDS011;47991;42.974;12.082;2023-07-13T12:18:11;11.60;;;4.70;;
62037;SDS011;47991;42.974;12.082;2023-07-13T12:20:40;11.10;;;5.00;;
62037;SDS011;47991;42.974;12.082;2023-07-13T12:25:53;13.30;;;4.60;;
62037;SDS011;47991;42.974;12.082;2023-07-13T12:28:34;13.90;;;5.50;;
62037;SDS011;47991;42.974;12.082;2023-07-13T12:31:04;12.80;;;5.40;;
62037;SDS011;47991;42.974;12.082;2023-07-13T12:33:33;12.70;;;4.70;;
62037;SDS011;47991;42.974;12.082;2023-07-13T12:36:01;12.50;;;5.40;;
62037;SDS011;47991;42.974;12.082;2023-07-13T12:38:31;13.70;;;5.30;;
62037;SDS011;47991;42.974;12.082;2023-07-13T12:40:58;13.90;;;5.20;;
62037;SDS011;47991;42.974;12.082;2023-07-13T12:43:28;11.70;;;4.90;;
62037;SDS011;47991;42.974;12.082;2023-07-13T12:46:05;19.20;;;5.60;;
62037;SDS011;47991;42.974;12.082;2023-07-13T12:48:47;13.10;;;5.50;;
62037;SDS011;47991;42.974;12.082;2023-07-13T12:51:16;11.10;;;4.80;;
62037;SDS011;47991;42.974;12.082;2023-07-13T12:53:47;12.80;;;5.20;;
62037;SDS011;47991;42.974;12.082;2023-07-13T12:56:19;22.30;;;5.70;;
62037;SDS011;47991;42.974;12.082;2023-07-13T12:58:57;14.20;;;5.30;;
62037;SDS011;47991;42.974;12.082;2023-07-13T13:01:27;16.90;;;5.50;;
62037;SDS011;47991;42.974;12.082;2023-07-13T13:04:00;12.70;;;4.90;;
62037;SDS011;47991;42.974;12.082;2023-07-13T13:06:33;12.90;;;5.30;;
62037;SDS011;47991;42.974;12.082;2023-07-13T13:09:02;9.50;;;4.70;;
62037;SDS011;47991;42.974;12.082;2023-07-13T13:11:30;10.90;;;5.00;;
62037;SDS011;47991;42.974;12.082;2023-07-13T13:13:58;12.70;;;5.10;;
62037;SDS011;47991;42.974;12.082;2023-07-13T13:16:32;14.20;;;5.40;;
62037;SDS011;47991;42.974;12.082;2023-07-13T13:19:05;11.10;;;5.00;;
62037;SDS011;47991;42.974;12.082;2023-07-13T13:21:45;14.00;;;5.20;;
62037;SDS011;47991;42.974;12.082;2023-07-13T13:24:31;17.10;;;5.70;;
62037;SDS011;47991;42.974;12.082;2023-07-13T13:26:57;14.50;;;5.40;;
62037;SDS011;47991;42.974;12.082;2023-07-13T13:29:25;14.10;;;5.70;;
62037;SDS011;47991;42.974;12.082;2023-07-13T13:31:53;12.10;;;5.40;;
62037;SDS011;47991;42.974;12.082;2023-07-13T13:34:21;12.80;;;6.00;;
62037;SDS011;47991;42.974;12.082;2023-07-13T13:36:50;12.80;;;5.60;;
62037;SDS011;47991;42.974;12.082;2023-07-13T13:41:49;14.50;;;5.00;;
62037;SDS011;47991;42.974;12.082;2023-07-13T13:44:17;15.10;;;5.90;;
62037;SDS011;47991;42.974;12.082;2023-07-13T13:46:46;10.00;;;4.80;;
62037;SDS011;47991;42.974;12.082;2023-07-13T13:49:25;11.40;;;5.20;;
62037;SDS011;47991;42.974;12.082;2023-07-13T13:51:54;17.00;;;5.90;;
62037;SDS011;47991;42.974;12.082;2023-07-13T13:54:22;11.60;;;5.20;;
62037;SDS011;47991;42.974;12.082;2023-07-13T13:56:50;13.00;;;5.70;;
62037;SDS011;47991;42.974;12.082;2023-07-13T13:59:19;12.90;;;5.50;;
62037;SDS011;47991;42.974;12.082;2023-07-13T14:01:46;14.70;;;5.40;;
62037;SDS011;47991;42.974;12.082;2023-07-13T14:04:16;20.80;;;5.70;;
62037;SDS011;47991;42.974;12.082;2023-07-13T14:06:45;13.20;;;4.80;;
62037;SDS011;47991;42.974;12.082;2023-07-13T14:09:13;14.80;;;5.10;;
62037;SDS011;47991;42.974;12.082;2023-07-13T14:11:42;14.20;;;5.70;;
62037;SDS011;47991;42.974;12.082;2023-07-13T14:14:17;15.20;;;5.10;;
62037;SDS011;47991;42.974;12.082;2023-07-13T14:19:19;15.20;;;5.10;;
62037;SDS011;47991;42.974;12.082;2023-07-13T14:21:47;13.90;;;5.10;;
62037;SDS011;47991;42.974;12.082;2023-07-13T14:24:15;12.00;;;5.50;;
62037;SDS011;47991;42.974;12.082;2023-07-13T14:26:43;13.40;;;4.70;;
62037;SDS011;47991;42.974;12.082;2023-07-13T14:29:17;15.40;;;5.90;;
62037;SDS011;47991;42.974;12.082;2023-07-13T14:31:46;14.60;;;5.60;;
62037;SDS011;47991;42.974;12.082;2023-07-13T14:34:13;15.60;;;5.80;;
62037;SDS011;47991;42.974;12.082;2023-07-13T14:36:41;16.40;;;5.60;;
62037;SDS011;47991;42.974;12.082;2023-07-13T14:39:15;12.50;;;5.50;;
62037;SDS011;47991;42.974;12.082;2023-07-13T14:41:44;11.10;;;4.90;;
62037;SDS011;47991;42.974;12.082;2023-07-13T14:44:12;13.80;;;5.50;;
62037;SDS011;47991;42.974;12.082;2023-07-13T14:46:41;16.80;;;4.70;;
62037;SDS011;47991;42.974;12.082;2023-07-13T14:49:13;15.80;;;5.70;;
62037;SDS011;47991;42.974;12.082;2023-07-13T14:51:48;14.30;;;5.70;;
62037;SDS011;47991;42.974;12.082;2023-07-13T14:54:15;16.40;;;5.60;;
62037;SDS011;47991;42.974;12.082;2023-07-13T14:56:42;11.90;;;5.00;;
62037;SDS011;47991;42.974;12.082;2023-07-13T14:59:09;19.30;;;5.90;;
62037;SDS011;47991;42.974;12.082;2023-07-13T15:01:39;16.30;;;5.40;;
62037;SDS011;47991;42.974;12.082;2023-07-13T15:04:07;15.50;;;5.90;;
62037;SDS011;47991;42.974;12.082;2023-07-13T15:06:52;16.10;;;5.50;;
62037;SDS011;47991;42.974;12.082;2023-07-13T15:09:21;14.10;;;5.30;;
62037;SDS011;47991;42.974;12.082;2023-07-13T15:11:48;17.50;;;5.60;;
62037;SDS011;47991;42.974;12.082;2023-07-13T15:14:15;13.30;;;5.60;;
62037;SDS011;47991;42.974;12.082;2023-07-13T15:16:49;16.70;;;5.70;;
62037;SDS011;47991;42.974;12.082;2023-07-13T15:19:17;16.00;;;5.20;;
62037;SDS011;47991;42.974;12.082;2023-07-13T15:21:46;17.30;;;5.40;;
62037;SDS011;47991;42.974;12.082;2023-07-13T15:24:14;19.30;;;5.80;;
62037;SDS011;47991;42.974;12.082;2023-07-13T15:26:42;20.20;;;6.00;;
62037;SDS011;47991;42.974;12.082;2023-07-13T15:29:11;14.40;;;5.50;;